sensor_id;sensor_type;location;lat;lon;timestamp;P1;durP1;ratioP1;P2;durP2;ratioP2
50165;SDS011;36071;48.140;11.516;2023-07-20T00:04:50;4.0;;;2.1;;
50165;SDS011;36071;48.140;11.516;2023-07-20T00:09:50;4.7;;;2.2;;
50165;SDS011;36071;48.140;11.516;2023-07-20T00:14:50;5.7;;;2.4;;
50165;SDS011;36071;48.140;11.516;2023-07-20T00:24:50;5.1;;;2.2;;
50165;SDS011;36071;48.140;11.516;2023-07-20T00:29:50;7.1;;;2.4;;
50165;SDS011;36071;48.140;11.516;2023-07-20T00:34:50;5.3;;;2.2;;
50165;SDS011;36071;48.140;11.516;2023-07-20T00:39:50;7.2;;;2.4;;
50165;SDS011;36071;48.140;11.516;2023-07-20T00:44:50;5.7;;;2.4;;
50165;SDS011;36071;48.140;11.516;2023-07-20T00:49:50;6.5;;;2.2;;
50165;SDS011;36071;48.140;11.516;2023-07-20T00:54:50;5.5;;;2.3;;
50165;SDS011;36071;48.140;11.516;2023-07-20T00:59:50;5.0;;;2.2;;
50165;SDS011;36071;48.140;11.516;2023-07-20T01:04:50;5.6;;;2.1;;
50165;SDS011;36071;48.140;11.516;2023-07-20T01:09:52;7.0;;;2.2;;
50165;SDS011;36071;48.140;11.516;2023-07-20T01:14:50;7.0;;;2.0;;
50165;SDS011;36071;48.140;11.516;2023-07-20T01:19:50;6.3;;;2.1;;
50165;SDS011;36071;48.140;11.516;2023-07-20T01:24:53;5.3;;;2.4;;
50165;SDS011;36071;48.140;11.516;2023-07-20T01:29:55;5.4;;;2.2;;
50165;SDS011;36071;48.140;11.516;2023-07-20T01:34:51;6.6;;;2.3;;
50165;SDS011;36071;48.140;11.516;2023-07-20T01:39:51;7.0;;;2.4;;
50165;SDS011;36071;48.140;11.516;2023-07-20T01:44:51;5.0;;;2.2;;
50165;SDS011;36071;48.140;11.516;2023-07-20T01:49:50;4.9;;;2.3;;
50165;SDS011;36071;48.140;11.516;2023-07-20T01:54:50;6.0;;;2.0;;
50165;SDS011;36071;48.140;11.516;2023-07-20T01:59:50;6.9;;;1.9;;
50165;SDS011;36071;48.140;11.516;2023-07-20T02:04:50;7.6;;;2.4;;
50165;SDS011;36071;48.140;11.516;2023-07-20T02:09:50;7.2;;;2.0;;
50165;SDS011;36071;48.140;11.516;2023-07-20T02:14:50;6.8;;;2.0;;
50165;SDS011;36071;48.140;11.516;2023-07-20T02:19:51;5.2;;;1.8;;
50165;SDS011;36071;48.140;11.516;2023-07-20T02:24:50;4.6;;;1.9;;
50165;SDS011;36071;48.140;11.516;2023-07-20T02:29:50;3.3;;;1.6;;
50165;SDS011;36071;48.140;11.516;2023-07-20T02:34:51;3.2;;;1.8;;
50165;SDS011;36071;48.140;11.516;2023-07-20T02:39:50;4.7;;;1.9;;
50165;SDS011;36071;48.140;11.516;2023-07-20T02:44:50;4.8;;;1.9;;
50165;SDS011;36071;48.140;11.516;2023-07-20T02:49:50;5.3;;;2.3;;
50165;SDS011;36071;48.140;11.516;2023-07-20T02:54:50;4.7;;;1.9;;
50165;SDS011;36071;48.140;11.516;2023-07-20T02:59:50;4.5;;;1.6;;
50165;SDS011;36071;48.140;11.516;2023-07-20T03:04:50;4.9;;;1.6;;
50165;SDS011;36071;48.140;11.516;2023-07-20T03:09:50;3.7;;;1.8;;
50165;SDS011;36071;48.140;11.516;2023-07-20T03:14:50;5.5;;;1.5;;
50165;SDS011;36071;48.140;11.516;2023-07-20T03:19:50;4.8;;;1.9;;
50165;SDS011;36071;48.140;11.516;2023-07-20T03:24:50;5.5;;;2.0;;
50165;SDS011;36071;48.140;11.516;2023-07-20T03:29:50;6.9;;;1.8;;
50165;SDS011;36071;48.140;11.516;2023-07-20T03:34:50;4.6;;;1.7;;
50165;SDS011;36071;48.140;11.516;2023-07-20T03:39:50;5.7;;;1.6;;
50165;SDS011;36071;48.140;11.516;2023-07-20T03:44:50;3.6;;;1.6;;
50165;SDS011;36071;48.140;11.516;2023-07-20T03:49:50;3.9;;;1.7;;
50165;SDS011;36071;48.140;11.516;2023-07-20T03:54:50;3.4;;;1.6;;
50165;SDS011;36071;48.140;11.516;2023-07-20T03:59:52;3.2;;;1.8;;
50165;SDS011;36071;48.140;11.516;2023-07-20T04:04:50;3.6;;;1.8;;
50165;SDS011;36071;48.140;11.516;2023-07-20T04:09:50;3.6;;;1.6;;
50165;SDS011;36071;48.140;11.516;2023-07-20T04:14:51;2.8;;;1.9;;
50165;SDS011;36071;48.140;11.516;2023-07-20T04:19:50;6.5;;;2.2;;
50165;SDS011;36071;48.140;11.516;2023-07-20T04:24:50;3.9;;;1.6;;
50165;SDS011;36071;48.140;11.516;2023-07-20T04:29:50;4.0;;;1.6;;
50165;SDS011;36071;48.140;11.516;2023-07-20T04:39:50;5.2;;;2.0;;
50165;SDS011;36071;48.140;11.516;2023-07-20T04:44:50;5.3;;;1.7;;
50165;SDS011;36071;48.140;11.516;2023-07-20T04:49:50;4.4;;;1.8;;
50165;SDS011;36071;48.140;11.516;2023-07-20T04:54:50;4.7;;;1.9;;
50165;SDS011;36071;48.140;11.516;2023-07-20T04:59:51;6.4;;;2.0;;
50165;SDS011;36071;48.140;11.516;2023-07-20T05:04:50;4.8;;;2.1;;
50165;SDS011;36071;48.140;11.516;2023-07-20T05:09:50;4.1;;;1.8;;
50165;SDS011;36071;48.140;11.516;2023-07-20T05:14:50;5.0;;;2.1;;
50165;SDS011;36071;48.140;11.516;2023-07-20T05:19:50;6.0;;;2.4;;
50165;SDS011;36071;48.140;11.516;2023-07-20T05:24:50;5.8;;;2.3;;
50165;SDS011;36071;48.140;11.516;2023-07-20T05:29:50;6.0;;;2.2;;
50165;SDS011;36071;48.140;11.516;2023-07-20T05:34:51;4.4;;;2.3;;
50165;SDS011;36071;48.140;11.516;2023-07-20T05:39:51;5.0;;;2.3;;
50165;SDS011;36071;48.140;11.516;2023-07-20T05:44:50;5.7;;;2.2;;
50165;SDS011;36071;48.140;11.516;2023-07-20T05:49:50;6.0;;;2.7;;
50165;SDS011;36071;48.140;11.516;2023-07-20T05:54:50;5.4;;;2.2;;
50165;SDS011;36071;48.140;11.516;2023-07-20T05:59:50;3.7;;;2.2;;
50165;SDS011;36071;48.140;11.516;2023-07-20T06:04:50;4.7;;;2.2;;
50165;SDS011;36071;48.140;11.516;2023-07-20T06:09:50;5.7;;;2.3;;
50165;SDS011;36071;48.140;11.516;2023-07-20T06:14:50;5.9;;;2.2;;
50165;SDS011;36071;48.140;11.516;2023-07-20T06:19:52;6.7;;;2.4;;
50165;SDS011;36071;48.140;11.516;2023-07-20T06:24:50;3.1;;;1.9;;
50165;SDS011;36071;48.140;11.516;2023-07-20T06:29:50;5.9;;;2.3;;
50165;SDS011;36071;48.140;11.516;2023-07-20T06:34:50;5.5;;;2.1;;
50165;SDS011;36071;48.140;11.516;2023-07-20T06:39:50;4.4;;;2.0;;
50165;SDS011;36071;48.140;11.516;2023-07-20T06:44:51;5.9;;;2.1;;
50165;SDS011;36071;48.140;11.516;2023-07-20T06:49:50;6.6;;;2.1;;
50165;SDS011;36071;48.140;11.516;2023-07-20T06:54:50;6.7;;;2.2;;
50165;SDS011;36071;48.140;11.516;2023-07-20T06:59:50;5.1;;;2.3;;
50165;SDS011;36071;48.140;11.516;2023-07-20T07:04:50;4.9;;;1.9;;
50165;SDS011;36071;48.140;11.516;2023-07-20T07:09:50;6.8;;;2.2;;
50165;SDS011;36071;48.140;11.516;2023-07-20T07:14:50;8.4;;;3.2;;
50165;SDS011;36071;48.140;11.516;2023-07-20T07:19:51;9.0;;;4.8;;
50165;SDS011;36071;48.140;11.516;2023-07-20T07:24:50;8.3;;;4.3;;
50165;SDS011;36071;48.140;11.516;2023-07-20T07:29:50;5.3;;;3.5;;
50165;SDS011;36071;48.140;11.516;2023-07-20T07:34:50;7.5;;;3.4;;
50165;SDS011;36071;48.140;11.516;2023-07-20T07:39:52;10.1;;;5.3;;
50165;SDS011;36071;48.140;11.516;2023-07-20T07:44:51;8.1;;;2.8;;
50165;SDS011;36071;48.140;11.516;2023-07-20T07:49:50;4.4;;;2.6;;
50165;SDS011;36071;48.140;11.516;2023-07-20T07:54:50;3.5;;;2.4;;
50165;SDS011;36071;48.140;11.516;2023-07-20T07:59:50;4.4;;;2.2;;
50165;SDS011;36071;48.140;11.516;2023-07-20T08:04:50;5.6;;;2.4;;
50165;SDS011;36071;48.140;11.516;2023-07-20T08:09:50;7.4;;;2.6;;
50165;SDS011;36071;48.140;11.516;2023-07-20T08:14:51;15.7;;;8.8;;
50165;SDS011;36071;48.140;11.516;2023-07-20T08:19:50;6.4;;;3.5;;
50165;SDS011;36071;48.140;11.516;2023-07-20T08:24:50;6.7;;;3.1;;
50165;SDS011;36071;48.140;11.516;2023-07-20T08:29:50;7.4;;;2.5;;
50165;SDS011;36071;48.140;11.516;2023-07-20T08:34:51;4.3;;;2.3;;
50165;SDS011;36071;48.140;11.516;2023-07-20T08:39:50;5.4;;;2.0;;
50165;SDS011;36071;48.140;11.516;2023-07-20T08:44:50;5.6;;;1.9;;
50165;SDS011;36071;48.140;11.516;2023-07-20T08:49:51;4.1;;;1.8;;
50165;SDS011;36071;48.140;11.516;2023-07-20T08:54:50;3.9;;;2.1;;
50165;SDS011;36071;48.140;11.516;2023-07-20T08:59:51;4.8;;;1.7;;
50165;SDS011;36071;48.140;11.516;2023-07-20T09:04:50;4.1;;;2.0;;
50165;SDS011;36071;48.140;11.516;2023-07-20T09:09:50;3.3;;;1.9;;
50165;SDS011;36071;48.140;11.516;2023-07-20T09:14:50;7.4;;;1.8;;
50165;SDS011;36071;48.140;11.516;2023-07-20T09:19:51;4.8;;;1.8;;
50165;SDS011;36071;48.140;11.516;2023-07-20T09:24:51;4.5;;;1.8;;
50165;SDS011;36071;48.140;11.516;2023-07-20T09:29:52;5.8;;;2.1;;
50165;SDS011;36071;48.140;11.516;2023-07-20T09:34:51;3.7;;;2.0;;
50165;SDS011;36071;48.140;11.516;2023-07-20T09:39:51;4.3;;;2.0;;
50165;SDS011;36071;48.140;11.516;2023-07-20T09:44:50;3.6;;;1.9;;
50165;SDS011;36071;48.140;11.516;2023-07-20T09:49:54;3.5;;;1.9;;
50165;SDS011;36071;48.140;11.516;2023-07-20T09:54:50;3.4;;;1.8;;
50165;SDS011;36071;48.140;11.516;2023-07-20T09:59:50;4.5;;;1.8;;
50165;SDS011;36071;48.140;11.516;2023-07-20T10:04:56;8.9;;;6.0;;
50165;SDS011;36071;48.140;11.516;2023-07-20T10:09:51;7.0;;;2.9;;
50165;SDS011;36071;48.140;11.516;2023-07-20T10:14:52;4.9;;;2.3;;
50165;SDS011;36071;48.140;11.516;2023-07-20T10:19:51;6.0;;;3.4;;
50165;SDS011;36071;48.140;11.516;2023-07-20T10:24:51;5.8;;;3.4;;
50165;SDS011;36071;48.140;11.516;2023-07-20T10:29:51;8.2;;;5.0;;
50165;SDS011;36071;48.140;11.516;2023-07-20T10:34:51;6.3;;;2.5;;
50165;SDS011;36071;48.140;11.516;2023-07-20T10:39:51;5.4;;;2.5;;
50165;SDS011;36071;48.140;11.516;2023-07-20T10:44:51;4.4;;;2.2;;
50165;SDS011;36071;48.140;11.516;2023-07-20T10:49:58;4.0;;;2.1;;
50165;SDS011;36071;48.140;11.516;2023-07-20T10:54:51;4.2;;;2.1;;
50165;SDS011;36071;48.140;11.516;2023-07-20T10:59:50;4.9;;;2.4;;
50165;SDS011;36071;48.140;11.516;2023-07-20T11:04:50;3.7;;;1.8;;
50165;SDS011;36071;48.140;11.516;2023-07-20T11:09:51;4.3;;;2.0;;
50165;SDS011;36071;48.140;11.516;2023-07-20T11:14:52;3.5;;;1.7;;
50165;SDS011;36071;48.140;11.516;2023-07-20T11:19:54;5.2;;;1.8;;
50165;SDS011;36071;48.140;11.516;2023-07-20T11:24:54;4.6;;;1.9;;
50165;SDS011;36071;48.140;11.516;2023-07-20T11:29:50;3.7;;;1.8;;
50165;SDS011;36071;48.140;11.516;2023-07-20T11:34:51;3.5;;;1.9;;
50165;SDS011;36071;48.140;11.516;2023-07-20T11:39:56;2.7;;;1.7;;
50165;SDS011;36071;48.140;11.516;2023-07-20T11:44:51;3.5;;;1.9;;
50165;SDS011;36071;48.140;11.516;2023-07-20T11:49:50;4.3;;;1.7;;
50165;SDS011;36071;48.140;11.516;2023-07-20T11:54:51;4.7;;;2.0;;
50165;SDS011;36071;48.140;11.516;2023-07-20T11:59:54;5.3;;;1.7;;
50165;SDS011;36071;48.140;11.516;2023-07-20T12:04:51;4.3;;;1.7;;
50165;SDS011;36071;48.140;11.516;2023-07-20T12:10:02;3.1;;;1.6;;
50165;SDS011;36071;48.140;11.516;2023-07-20T12:14:51;5.4;;;2.0;;
50165;SDS011;36071;48.140;11.516;2023-07-20T12:19:55;18.7;;;13.8;;
50165;SDS011;36071;48.140;11.516;2023-07-20T12:24:52;3.5;;;2.1;;
50165;SDS011;36071;48.140;11.516;2023-07-20T12:29:51;3.7;;;1.8;;
50165;SDS011;36071;48.140;11.516;2023-07-20T12:34:50;5.4;;;1.9;;
50165;SDS011;36071;48.140;11.516;2023-07-20T12:39:53;4.7;;;1.9;;
50165;SDS011;36071;48.140;11.516;2023-07-20T12:44:51;3.4;;;1.9;;
50165;SDS011;36071;48.140;11.516;2023-07-20T12:49:50;3.0;;;1.8;;
50165;SDS011;36071;48.140;11.516;2023-07-20T12:54:50;3.7;;;1.8;;
50165;SDS011;36071;48.140;11.516;2023-07-20T12:59:51;5.1;;;1.7;;
50165;SDS011;36071;48.140;11.516;2023-07-20T13:04:51;6.5;;;1.8;;
50165;SDS011;36071;48.140;11.516;2023-07-20T13:09:51;4.8;;;2.0;;
50165;SDS011;36071;48.140;11.516;2023-07-20T13:14:51;4.9;;;1.7;;
50165;SDS011;36071;48.140;11.516;2023-07-20T13:19:51;3.8;;;1.5;;
50165;SDS011;36071;48.140;11.516;2023-07-20T13:24:52;4.6;;;1.8;;
50165;SDS011;36071;48.140;11.516;2023-07-20T13:29:51;2.9;;;1.8;;
50165;SDS011;36071;48.140;11.516;2023-07-20T13:34:51;3.7;;;1.8;;
50165;SDS011;36071;48.140;11.516;2023-07-20T13:39:51;4.4;;;1.7;;
50165;SDS011;36071;48.140;11.516;2023-07-20T13:44:51;3.7;;;1.9;;
50165;SDS011;36071;48.140;11.516;2023-07-20T13:49:51;3.4;;;1.5;;
50165;SDS011;36071;48.140;11.516;2023-07-20T13:54:51;19.2;;;13.6;;
50165;SDS011;36071;48.140;11.516;2023-07-20T13:59:51;3.7;;;2.0;;
50165;SDS011;36071;48.140;11.516;2023-07-20T14:04:51;3.9;;;1.8;;
50165;SDS011;36071;48.140;11.516;2023-07-20T14:09:51;3.4;;;1.8;;
50165;SDS011;36071;48.140;11.516;2023-07-20T14:14:51;4.7;;;1.7;;
50165;SDS011;36071;48.140;11.516;2023-07-20T14:19:51;4.4;;;1.6;;
50165;SDS011;36071;48.140;11.516;2023-07-20T14:24:51;4.3;;;1.5;;
50165;SDS011;36071;48.140;11.516;2023-07-20T14:29:51;4.6;;;1.7;;
50165;SDS011;36071;48.140;11.516;2023-07-20T14:34:51;9.2;;;1.8;;
50165;SDS011;36071;48.140;11.516;2023-07-20T14:39:51;6.9;;;1.6;;
50165;SDS011;36071;48.140;11.516;2023-07-20T14:44:51;3.2;;;1.7;;
50165;SDS011;36071;48.140;11.516;2023-07-20T14:49:51;4.7;;;1.6;;
50165;SDS011;36071;48.140;11.516;2023-07-20T14:54:51;5.9;;;1.8;;
50165;SDS011;36071;48.140;11.516;2023-07-20T15:04:51;3.7;;;1.7;;
50165;SDS011;36071;48.140;11.516;2023-07-20T15:09:51;3.5;;;1.8;;
50165;SDS011;36071;48.140;11.516;2023-07-20T15:15:02;3.8;;;1.7;;
50165;SDS011;36071;48.140;11.516;2023-07-20T15:19:51;3.2;;;1.5;;
50165;SDS011;36071;48.140;11.516;2023-07-20T15:24:51;3.8;;;1.8;;
50165;SDS011;36071;48.140;11.516;2023-07-20T15:29:51;5.8;;;1.8;;
50165;SDS011;36071;48.140;11.516;2023-07-20T15:34:51;5.3;;;1.8;;
50165;SDS011;36071;48.140;11.516;2023-07-20T15:39:51;3.6;;;1.8;;
50165;SDS011;36071;48.140;11.516;2023-07-20T15:44:51;4.3;;;2.0;;
50165;SDS011;36071;48.140;11.516;2023-07-20T15:49:51;5.9;;;1.8;;
50165;SDS011;36071;48.140;11.516;2023-07-20T15:54:51;8.4;;;6.2;;
50165;SDS011;36071;48.140;11.516;2023-07-20T15:59:51;6.7;;;2.6;;
50165;SDS011;36071;48.140;11.516;2023-07-20T16:04:51;3.8;;;1.8;;
50165;SDS011;36071;48.140;11.516;2023-07-20T16:09:51;4.2;;;1.6;;
50165;SDS011;36071;48.140;11.516;2023-07-20T16:14:51;2.0;;;1.5;;
50165;SDS011;36071;48.140;11.516;2023-07-20T16:19:51;3.9;;;1.9;;
50165;SDS011;36071;48.140;11.516;2023-07-20T16:24:51;6.6;;;3.0;;
50165;SDS011;36071;48.140;11.516;2023-07-20T16:29:51;5.9;;;3.9;;
50165;SDS011;36071;48.140;11.516;2023-07-20T16:34:51;5.5;;;2.0;;
50165;SDS011;36071;48.140;11.516;2023-07-20T16:39:51;4.3;;;2.1;;
50165;SDS011;36071;48.140;11.516;2023-07-20T16:44:51;4.5;;;2.3;;
50165;SDS011;36071;48.140;11.516;2023-07-20T16:49:51;13.2;;;8.4;;
50165;SDS011;36071;48.140;11.516;2023-07-20T16:54:51;10.0;;;7.4;;
50165;SDS011;36071;48.140;11.516;2023-07-20T16:59:51;4.0;;;2.5;;
50165;SDS011;36071;48.140;11.516;2023-07-20T17:04:51;3.1;;;1.9;;
50165;SDS011;36071;48.140;11.516;2023-07-20T17:09:51;5.7;;;2.6;;
50165;SDS011;36071;48.140;11.516;2023-07-20T17:14:51;3.9;;;1.9;;
50165;SDS011;36071;48.140;11.516;2023-07-20T17:19:51;3.4;;;1.7;;
50165;SDS011;36071;48.140;11.516;2023-07-20T17:24:51;3.3;;;1.9;;
50165;SDS011;36071;48.140;11.516;2023-07-20T17:29:51;2.9;;;1.8;;
50165;SDS011;36071;48.140;11.516;2023-07-20T17:34:51;3.4;;;1.6;;
50165;SDS011;36071;48.140;11.516;2023-07-20T17:39:51;6.1;;;1.6;;
50165;SDS011;36071;48.140;11.516;2023-07-20T17:44:51;4.8;;;1.7;;
50165;SDS011;36071;48.140;11.516;2023-07-20T17:49:51;5.7;;;1.8;;
50165;SDS011;36071;48.140;11.516;2023-07-20T17:54:51;5.1;;;1.9;;
50165;SDS011;36071;48.140;11.516;2023-07-20T17:59:51;4.2;;;1.7;;
50165;SDS011;36071;48.140;11.516;2023-07-20T18:04:51;4.6;;;1.8;;
50165;SDS011;36071;48.140;11.516;2023-07-20T18:09:51;6.6;;;1.9;;
50165;SDS011;36071;48.140;11.516;2023-07-20T18:14:51;10.3;;;2.8;;
50165;SDS011;36071;48.140;11.516;2023-07-20T18:19:51;3.8;;;2.1;;
50165;SDS011;36071;48.140;11.516;2023-07-20T18:24:51;4.7;;;2.3;;
50165;SDS011;36071;48.140;11.516;2023-07-20T18:29:51;3.1;;;1.8;;
50165;SDS011;36071;48.140;11.516;2023-07-20T18:34:51;4.9;;;2.2;;
50165;SDS011;36071;48.140;11.516;2023-07-20T18:39:52;4.1;;;1.9;;
50165;SDS011;36071;48.140;11.516;2023-07-20T18:44:51;5.7;;;2.3;;
50165;SDS011;36071;48.140;11.516;2023-07-20T18:49:51;3.9;;;2.3;;
50165;SDS011;36071;48.140;11.516;2023-07-20T18:54:51;4.2;;;2.3;;
50165;SDS011;36071;48.140;11.516;2023-07-20T18:59:51;15.2;;;9.6;;
50165;SDS011;36071;48.140;11.516;2023-07-20T19:04:51;18.8;;;12.5;;
50165;SDS011;36071;48.140;11.516;2023-07-20T19:09:51;11.0;;;7.2;;
50165;SDS011;36071;48.140;11.516;2023-07-20T19:14:51;7.6;;;3.6;;
50165;SDS011;36071;48.140;11.516;2023-07-20T19:19:54;7.2;;;3.3;;
50165;SDS011;36071;48.140;11.516;2023-07-20T19:24:51;5.3;;;2.5;;
50165;SDS011;36071;48.140;11.516;2023-07-20T19:29:51;4.9;;;2.6;;
50165;SDS011;36071;48.140;11.516;2023-07-20T19:34:51;4.4;;;2.6;;
50165;SDS011;36071;48.140;11.516;2023-07-20T19:39:51;4.4;;;2.3;;
50165;SDS011;36071;48.140;11.516;2023-07-20T19:44:51;7.4;;;2.2;;
50165;SDS011;36071;48.140;11.516;2023-07-20T19:49:51;4.3;;;2.3;;
50165;SDS011;36071;48.140;11.516;2023-07-20T19:54:51;5.5;;;3.7;;
50165;SDS011;36071;48.140;11.516;2023-07-20T19:59:51;27.3;;;16.3;;
50165;SDS011;36071;48.140;11.516;2023-07-20T20:04:51;26.4;;;15.5;;
50165;SDS011;36071;48.140;11.516;2023-07-20T20:09:51;33.1;;;22.2;;
50165;SDS011;36071;48.140;11.516;2023-07-20T20:14:51;47.0;;;30.2;;
50165;SDS011;36071;48.140;11.516;2023-07-20T20:19:51;19.1;;;10.5;;
50165;SDS011;36071;48.140;11.516;2023-07-20T20:24:51;14.0;;;8.1;;
50165;SDS011;36071;48.140;11.516;2023-07-20T20:29:51;23.8;;;17.1;;
50165;SDS011;36071;48.140;11.516;2023-07-20T20:34:51;53.0;;;32.1;;
50165;SDS011;36071;48.140;11.516;2023-07-20T20:39:51;15.8;;;8.2;;
50165;SDS011;36071;48.140;11.516;2023-07-20T20:44:52;8.9;;;5.7;;
50165;SDS011;36071;48.140;11.516;2023-07-20T20:49:51;7.0;;;3.4;;
50165;SDS011;36071;48.140;11.516;2023-07-20T20:54:51;11.0;;;4.5;;
50165;SDS011;36071;48.140;11.516;2023-07-20T20:59:51;8.4;;;3.4;;
50165;SDS011;36071;48.140;11.516;2023-07-20T21:04:51;7.6;;;4.2;;
50165;SDS011;36071;48.140;11.516;2023-07-20T21:09:51;8.6;;;3.3;;
50165;SDS011;36071;48.140;11.516;2023-07-20T21:14:51;6.2;;;3.5;;
50165;SDS011;36071;48.140;11.516;2023-07-20T21:19:51;6.4;;;3.1;;
50165;SDS011;36071;48.140;11.516;2023-07-20T21:24:51;5.0;;;3.0;;
50165;SDS011;36071;48.140;11.516;2023-07-20T21:29:51;8.1;;;2.9;;
50165;SDS011;36071;48.140;11.516;2023-07-20T21:34:51;8.6;;;2.9;;
50165;SDS011;36071;48.140;11.516;2023-07-20T21:39:51;7.4;;;2.5;;
50165;SDS011;36071;48.140;11.516;2023-07-20T21:44:51;6.7;;;2.8;;
50165;SDS011;36071;48.140;11.516;2023-07-20T21:49:51;4.5;;;3.0;;
50165;SDS011;36071;48.140;11.516;2023-07-20T21:54:51;9.5;;;3.2;;
50165;SDS011;36071;48.140;11.516;2023-07-20T21:59:51;6.5;;;3.3;;
50165;SDS011;36071;48.140;11.516;2023-07-20T22:04:51;7.7;;;3.3;;
50165;SDS011;36071;48.140;11.516;2023-07-20T22:09:51;5.4;;;2.8;;
50165;SDS011;36071;48.140;11.516;2023-07-20T22:14:51;7.8;;;3.3;;
50165;SDS011;36071;48.140;11.516;2023-07-20T22:19:52;5.6;;;2.9;;
50165;SDS011;36071;48.140;11.516;2023-07-20T22:24:51;9.4;;;3.1;;
50165;SDS011;36071;48.140;11.516;2023-07-20T22:29:51;5.6;;;2.2;;
50165;SDS011;36071;48.140;11.516;2023-07-20T22:34:51;5.2;;;2.9;;
50165;SDS011;36071;48.140;11.516;2023-07-20T22:39:51;5.2;;;2.8;;
50165;SDS011;36071;48.140;11.516;2023-07-20T22:44:51;7.1;;;2.7;;
50165;SDS011;36071;48.140;11.516;2023-07-20T22:49:51;5.4;;;3.3;;
50165;SDS011;36071;48.140;11.516;2023-07-20T22:54:51;7.8;;;3.2;;
50165;SDS011;36071;48.140;11.516;2023-07-20T22:59:51;10.0;;;3.2;;
50165;SDS011;36071;48.140;11.516;2023-07-20T23:04:51;7.1;;;3.6;;
50165;SDS011;36071;48.140;11.516;2023-07-20T23:09:51;7.4;;;3.3;;
50165;SDS011;36071;48.140;11.516;2023-07-20T23:14:51;6.2;;;2.9;;
50165;SDS011;36071;48.140;11.516;2023-07-20T23:19:51;8.3;;;3.0;;
50165;SDS011;36071;48.140;11.516;2023-07-20T23:24:51;7.2;;;3.4;;
50165;SDS011;36071;48.140;11.516;2023-07-20T23:29:51;8.6;;;3.6;;
50165;SDS011;36071;48.140;11.516;2023-07-20T23:34:51;7.0;;;3.3;;
50165;SDS011;36071;48.140;11.516;2023-07-20T23:39:51;8.8;;;3.5;;
50165;SDS011;36071;48.140;11.516;2023-07-20T23:44:51;7.0;;;3.8;;
50165;SDS011;36071;48.140;11.516;2023-07-20T23:49:51;4.2;;;2.9;;
50165;SDS011;36071;48.140;11.516;2023-07-20T23:54:51;6.7;;;2.9;;
50165;SDS011;36071;48.140;11.516;2023-07-20T23:59:51;6.7;;;3.3;;
